KCMX/CMX METAR and TAF weather

Enter ICAO airport designator
Station Type Date Time Source
KCMX METAR 2019/10/21 22:53 UTC NOAA

KCMX 212253Z AUTO 10022G39KT 4SM BR OVC001 10/09 A2930 RMK AO2 PK WND 08039/2244 RAE49 PRESFR SLP925 P0004 T01000089


Station Type Date Time Source
KCMX Decoded METAR 2019/10/21 22:53 UTC NOAA

HANCOCK HOUGHTON CTY. MEMO, MI, United States (KCMX) 47-10N 088-29W 326M
Oct 21, 2019 - 06:53 PM EDT / 2019.10.21 2253 UTC
Wind: from the E (100 degrees) at 25 MPH (22 KT) gusting to 45 MPH (39 KT):0
Visibility: 4 mile(s):0
Sky conditions: overcast
Weather: mist
Precipitation last hour: 0.04 inches
Temperature: 50.0 F (10.0 C)
Dew Point: 48.0 F (8.9 C)
Relative Humidity: 92%
Pressure (altimeter): 29.3 in. Hg (992 hPa)
Pressure tendency: falling rapidly
ob: KCMX 212253Z AUTO 10022G39KT 4SM BR OVC001 10/09 A2930 RMK AO2 PK WND 08039/2244 RAE49 PRESFR SLP925 P0004 T01000089
cycle: 23

Station Type Date Time Source
KCMX TAF 2019/10/21 18:42 UTC NOAA

TAF KCMX 211739Z 2118/2218 10024G34KT 6SM -RA OVC006
TEMPO 2119/2123 1SM +RA OVC003
FM220200 16008G18KT P6SM VCSH SCT005 BKN011
FM221400 17009KT P6SM VCSH OVC007

Example: see airport list